createdAt,value
2023-01-27T00:00:14.895Z,987.33
2023-01-27T00:01:14.432Z,987.33
2023-01-27T00:02:14.475Z,987.35
2023-01-27T00:03:14.469Z,987.29
2023-01-27T00:04:14.395Z,987.31
2023-01-27T00:05:14.395Z,987.34
2023-01-27T00:06:14.378Z,987.33
2023-01-27T00:07:14.381Z,987.34
2023-01-27T00:08:14.370Z,987.36
2023-01-27T00:09:14.352Z,987.35
2023-01-27T00:10:14.708Z,987.31
2023-01-27T00:11:14.355Z,987.35
2023-01-27T00:12:14.321Z,987.37
2023-01-27T00:13:14.321Z,987.31
2023-01-27T00:14:14.315Z,987.33
2023-01-27T00:15:14.281Z,987.31
2023-01-27T00:16:14.311Z,987.34
2023-01-27T00:17:14.302Z,987.37
2023-01-27T00:18:14.251Z,987.32
2023-01-27T00:19:14.271Z,987.31
2023-01-27T00:20:14.423Z,987.24
2023-01-27T00:21:14.220Z,987.26
2023-01-27T00:22:14.217Z,987.25
2023-01-27T00:23:14.211Z,987.29
2023-01-27T00:24:14.269Z,987.27
2023-01-27T00:25:14.196Z,987.23
2023-01-27T00:26:14.170Z,987.22
2023-01-27T00:27:14.181Z,987.25
2023-01-27T00:28:14.160Z,987.24
2023-01-27T00:29:14.141Z,987.25
2023-01-27T00:30:14.362Z,987.20
2023-01-27T00:31:14.228Z,987.19
2023-01-27T00:32:14.100Z,987.25
2023-01-27T00:33:14.112Z,987.22
2023-01-27T00:34:14.101Z,987.24
2023-01-27T00:35:14.100Z,987.21
2023-01-27T00:36:14.062Z,987.29
2023-01-27T00:37:14.072Z,987.28
2023-01-27T00:38:14.050Z,987.23
2023-01-27T00:39:14.041Z,987.27
2023-01-27T00:40:14.324Z,987.24
2023-01-27T00:41:14.044Z,987.27
2023-01-27T00:42:14.001Z,987.27
2023-01-27T00:43:14.002Z,987.29
2023-01-27T00:44:13.983Z,987.30
2023-01-27T00:45:13.980Z,987.29
2023-01-27T00:46:14.010Z,987.32
2023-01-27T00:47:13.963Z,987.30
2023-01-27T00:48:13.951Z,987.35
2023-01-27T00:49:13.952Z,987.29
2023-01-27T00:50:14.121Z,987.26
2023-01-27T00:51:13.949Z,987.26
2023-01-27T00:52:13.921Z,987.32
2023-01-27T00:53:13.892Z,987.28
2023-01-27T00:54:13.892Z,987.30
2023-01-27T00:55:13.880Z,987.28
2023-01-27T00:56:13.891Z,987.33
2023-01-27T00:57:13.864Z,987.28
2023-01-27T00:58:13.861Z,987.31
2023-01-27T00:59:13.867Z,987.28
2023-01-27T01:00:14.135Z,987.30
2023-01-27T01:01:13.823Z,987.29
2023-01-27T01:02:13.802Z,987.37
2023-01-27T01:03:13.812Z,987.34
2023-01-27T01:04:13.772Z,987.27
2023-01-27T01:05:13.799Z,987.29
2023-01-27T01:06:13.759Z,987.34
2023-01-27T01:07:13.752Z,987.31
2023-01-27T01:08:13.732Z,987.38
2023-01-27T01:09:13.722Z,987.32
2023-01-27T01:10:14.099Z,987.32
2023-01-27T01:11:13.711Z,987.34
2023-01-27T01:12:13.700Z,987.41
2023-01-27T01:13:13.683Z,987.32
2023-01-27T01:14:13.663Z,987.34
2023-01-27T01:15:13.700Z,987.27
2023-01-27T01:16:13.725Z,987.34
2023-01-27T01:17:13.655Z,987.39
2023-01-27T01:18:13.641Z,987.37
2023-01-27T01:19:13.640Z,987.37
2023-01-27T01:20:13.979Z,987.40
2023-01-27T01:21:13.634Z,987.43
2023-01-27T01:22:13.608Z,987.38
2023-01-27T01:23:13.589Z,987.48
2023-01-27T01:24:13.657Z,987.41
2023-01-27T01:25:13.592Z,987.44
2023-01-27T01:26:13.552Z,987.44
2023-01-27T01:27:13.549Z,987.45
2023-01-27T01:28:13.522Z,987.43
2023-01-27T01:29:13.543Z,987.45
2023-01-27T01:30:13.798Z,987.45
2023-01-27T01:31:13.519Z,987.45
2023-01-27T01:32:13.483Z,987.42
2023-01-27T01:33:13.483Z,987.46
2023-01-27T01:34:13.490Z,987.44
2023-01-27T01:35:13.470Z,987.48
2023-01-27T01:36:13.461Z,987.42
2023-01-27T01:37:13.445Z,987.39
2023-01-27T01:38:13.423Z,987.41
2023-01-27T01:39:13.453Z,987.41
2023-01-27T01:40:13.677Z,987.39
2023-01-27T01:41:13.400Z,987.40
2023-01-27T01:42:13.400Z,987.39
2023-01-27T01:43:13.382Z,987.38
2023-01-27T01:44:13.373Z,987.36
2023-01-27T01:45:13.395Z,987.39
2023-01-27T01:46:13.418Z,987.40
2023-01-27T01:47:13.333Z,987.36
2023-01-27T01:48:13.345Z,987.31
2023-01-27T01:49:13.324Z,987.28
2023-01-27T01:50:13.619Z,987.27
2023-01-27T01:51:13.293Z,987.31
2023-01-27T01:52:13.314Z,987.30
2023-01-27T01:53:13.287Z,987.27
2023-01-27T01:54:13.272Z,987.23
2023-01-27T01:55:13.663Z,987.22
2023-01-27T01:56:13.233Z,987.21
2023-01-27T01:57:13.247Z,987.23
2023-01-27T01:58:13.224Z,987.21
2023-01-27T01:59:13.226Z,987.21
2023-01-27T02:00:13.456Z,987.22
2023-01-27T02:01:13.222Z,987.16
2023-01-27T02:02:13.201Z,987.12
2023-01-27T02:03:13.183Z,987.11
2023-01-27T02:04:13.172Z,987.10
2023-01-27T02:05:13.401Z,987.08
2023-01-27T02:06:13.134Z,987.10
2023-01-27T02:07:13.144Z,987.08
2023-01-27T02:08:13.134Z,987.08
2023-01-27T02:09:13.104Z,987.08
2023-01-27T02:10:13.490Z,987.14
2023-01-27T02:11:13.075Z,987.04
2023-01-27T02:12:13.087Z,987.08
2023-01-27T02:13:13.088Z,987.15
2023-01-27T02:14:13.064Z,987.09
2023-01-27T02:15:13.370Z,987.11
2023-01-27T02:16:13.044Z,987.11
2023-01-27T02:17:13.025Z,987.04
2023-01-27T02:18:13.045Z,987.03
2023-01-27T02:19:12.994Z,987.08
2023-01-27T02:20:12.995Z,987.07
2023-01-27T02:21:12.988Z,987.08
2023-01-27T02:22:12.983Z,987.03
2023-01-27T02:23:12.982Z,987.04
2023-01-27T02:24:12.984Z,987.04
2023-01-27T02:25:13.144Z,987.04
2023-01-27T02:26:12.924Z,987.07
2023-01-27T02:27:12.915Z,987.09
2023-01-27T02:28:12.918Z,987.09
2023-01-27T02:29:12.896Z,987.02
2023-01-27T02:30:12.911Z,987.00
2023-01-27T02:31:12.964Z,987.03
2023-01-27T02:32:12.866Z,986.96
2023-01-27T02:33:12.856Z,986.97
2023-01-27T02:34:12.846Z,986.98
2023-01-27T02:35:13.076Z,987.01
2023-01-27T02:36:12.840Z,986.95
2023-01-27T02:37:12.808Z,986.99
2023-01-27T02:38:12.831Z,987.00
2023-01-27T02:39:12.800Z,986.99
2023-01-27T02:40:12.795Z,987.05
2023-01-27T02:41:12.798Z,987.04
2023-01-27T02:42:12.808Z,987.03
2023-01-27T02:43:12.769Z,987.11
2023-01-27T02:44:12.771Z,987.09
2023-01-27T02:45:13.083Z,987.07
2023-01-27T02:46:12.807Z,987.04
2023-01-27T02:47:12.729Z,987.11
2023-01-27T02:48:12.720Z,987.07
2023-01-27T02:49:12.725Z,987.08
2023-01-27T02:50:12.697Z,987.01
2023-01-27T02:51:12.723Z,986.99
2023-01-27T02:52:12.702Z,986.97
2023-01-27T02:53:12.657Z,987.06
2023-01-27T02:54:12.652Z,987.04
2023-01-27T02:55:12.938Z,986.94
2023-01-27T02:56:12.648Z,986.98
2023-01-27T02:57:12.624Z,987.01
2023-01-27T02:58:12.629Z,987.02
2023-01-27T02:59:12.591Z,986.97
2023-01-27T03:00:12.615Z,986.98
2023-01-27T03:01:12.622Z,986.94
2023-01-27T03:02:12.619Z,986.96
2023-01-27T03:03:12.561Z,986.99
2023-01-27T03:04:12.558Z,986.98
2023-01-27T03:05:12.859Z,986.93
2023-01-27T03:06:12.561Z,986.99
2023-01-27T03:07:12.540Z,986.95
2023-01-27T03:08:12.522Z,986.95
2023-01-27T03:09:12.487Z,986.95
2023-01-27T03:10:12.492Z,986.94
2023-01-27T03:11:12.483Z,986.92
2023-01-27T03:12:12.457Z,986.94
2023-01-27T03:13:12.460Z,986.88
2023-01-27T03:14:12.450Z,986.92
2023-01-27T03:15:12.763Z,986.93
2023-01-27T03:16:14.540Z,986.93
2023-01-27T03:17:12.420Z,986.96
2023-01-27T03:18:12.427Z,986.94
2023-01-27T03:19:12.400Z,986.95
2023-01-27T03:20:12.430Z,986.97
2023-01-27T03:21:12.389Z,986.97
2023-01-27T03:22:12.370Z,986.89
2023-01-27T03:23:12.353Z,986.98
2023-01-27T03:24:12.365Z,987.05
2023-01-27T03:25:12.751Z,987.07
2023-01-27T03:26:12.348Z,987.02
2023-01-27T03:27:12.321Z,987.01
2023-01-27T03:28:12.302Z,986.98
2023-01-27T03:29:12.309Z,987.00
2023-01-27T03:30:12.272Z,987.02
2023-01-27T03:31:12.356Z,987.09
2023-01-27T03:32:12.296Z,987.07
2023-01-27T03:33:12.261Z,987.11
2023-01-27T03:34:12.230Z,987.09
2023-01-27T03:35:12.449Z,987.06
2023-01-27T03:36:12.218Z,987.08
2023-01-27T03:37:12.199Z,987.10
2023-01-27T03:38:12.198Z,987.08
2023-01-27T03:39:12.197Z,987.04
2023-01-27T03:40:12.182Z,987.08
2023-01-27T03:41:13.112Z,987.10
2023-01-27T03:42:12.163Z,987.07
2023-01-27T03:43:12.145Z,987.13
2023-01-27T03:44:12.153Z,987.08
2023-01-27T03:45:12.469Z,987.07
2023-01-27T03:46:13.091Z,987.07
2023-01-27T03:47:12.110Z,987.08
2023-01-27T03:48:12.093Z,987.07
2023-01-27T03:49:12.080Z,987.06
2023-01-27T03:50:12.088Z,987.01
2023-01-27T03:51:12.061Z,987.01
2023-01-27T03:52:12.057Z,987.07
2023-01-27T03:53:12.040Z,987.10
2023-01-27T03:54:12.050Z,987.10
2023-01-27T03:55:12.366Z,987.07
2023-01-27T03:56:12.012Z,987.05
2023-01-27T03:57:11.991Z,987.05
2023-01-27T03:58:11.990Z,987.12
2023-01-27T03:59:11.991Z,987.09
2023-01-27T04:00:11.970Z,987.11
2023-01-27T04:01:11.987Z,987.13
2023-01-27T04:02:11.950Z,987.13
2023-01-27T04:03:11.940Z,987.13
2023-01-27T04:04:11.942Z,987.10
2023-01-27T04:05:12.371Z,987.14
2023-01-27T04:06:11.913Z,987.07
2023-01-27T04:07:11.892Z,987.07
2023-01-27T04:08:11.892Z,987.05
2023-01-27T04:09:11.900Z,987.10
2023-01-27T04:10:11.895Z,987.06
2023-01-27T04:11:11.858Z,987.14
2023-01-27T04:12:11.842Z,987.11
2023-01-27T04:13:11.833Z,987.08
2023-01-27T04:14:11.841Z,987.16
2023-01-27T04:15:12.116Z,987.11
2023-01-27T04:16:11.829Z,987.15
2023-01-27T04:17:11.794Z,987.17
2023-01-27T04:18:11.805Z,987.16
2023-01-27T04:19:11.773Z,987.17
2023-01-27T04:20:11.785Z,987.18
2023-01-27T04:21:11.763Z,987.18
2023-01-27T04:22:11.753Z,987.23
2023-01-27T04:23:11.732Z,987.20
2023-01-27T04:24:11.756Z,987.20
2023-01-27T04:25:13.392Z,987.24
2023-01-27T04:26:11.728Z,987.27
2023-01-27T04:27:11.692Z,987.28
2023-01-27T04:28:11.690Z,987.33
2023-01-27T04:29:11.663Z,987.30
2023-01-27T04:30:11.663Z,987.31
2023-01-27T04:31:11.815Z,987.32
2023-01-27T04:32:11.662Z,987.28
2023-01-27T04:33:11.622Z,987.28
2023-01-27T04:34:11.621Z,987.29
2023-01-27T04:35:11.881Z,987.28
2023-01-27T04:36:11.592Z,987.28
2023-01-27T04:37:11.604Z,987.32
2023-01-27T04:38:12.879Z,987.31
2023-01-27T04:39:11.562Z,987.29
2023-01-27T04:40:11.562Z,987.25
2023-01-27T04:41:11.539Z,987.31
2023-01-27T04:42:11.542Z,987.28
2023-01-27T04:43:11.533Z,987.27
2023-01-27T04:44:11.523Z,987.26
2023-01-27T04:45:11.919Z,987.25
2023-01-27T04:46:11.492Z,987.27
2023-01-27T04:47:11.495Z,987.25
2023-01-27T04:48:11.473Z,987.27
2023-01-27T04:49:11.469Z,987.26
2023-01-27T04:50:11.461Z,987.26
2023-01-27T04:51:11.441Z,987.25
2023-01-27T04:52:11.443Z,987.24
2023-01-27T04:53:11.413Z,987.28
2023-01-27T04:54:11.415Z,987.22
2023-01-27T04:55:11.878Z,987.24
2023-01-27T04:56:11.400Z,987.20
2023-01-27T04:57:11.409Z,987.24
2023-01-27T04:58:11.373Z,987.20
2023-01-27T04:59:11.375Z,987.17
2023-01-27T05:00:11.351Z,987.17
2023-01-27T05:01:11.342Z,987.20
2023-01-27T05:02:11.377Z,987.25
2023-01-27T05:03:11.393Z,987.26
2023-01-27T05:04:11.329Z,987.30
2023-01-27T05:05:11.751Z,987.29
2023-01-27T05:06:11.293Z,987.25
2023-01-27T05:07:11.303Z,987.29
2023-01-27T05:08:11.273Z,987.27
2023-01-27T05:09:11.262Z,987.24
2023-01-27T05:10:11.252Z,987.35
2023-01-27T05:11:11.233Z,987.35
2023-01-27T05:12:11.283Z,987.35
2023-01-27T05:13:11.214Z,987.33
2023-01-27T05:14:11.207Z,987.27
2023-01-27T05:15:11.545Z,987.32
2023-01-27T05:16:11.278Z,987.25
2023-01-27T05:17:11.224Z,987.16
2023-01-27T05:18:11.173Z,987.17
2023-01-27T05:19:11.144Z,987.11
2023-01-27T05:20:11.147Z,987.14
2023-01-27T05:21:11.124Z,987.18
2023-01-27T05:22:11.139Z,987.20
2023-01-27T05:23:11.116Z,987.28
2023-01-27T05:24:11.147Z,987.26
2023-01-27T05:25:11.685Z,987.29
2023-01-27T05:26:11.083Z,987.30
2023-01-27T05:27:11.072Z,987.27
2023-01-27T05:28:11.068Z,987.34
2023-01-27T05:29:11.078Z,987.40
2023-01-27T05:30:11.045Z,987.40
2023-01-27T05:31:11.131Z,987.41
2023-01-27T05:32:11.025Z,987.38
2023-01-27T05:33:11.016Z,987.41
2023-01-27T05:34:11.018Z,987.41
2023-01-27T05:35:11.478Z,987.43
2023-01-27T05:36:10.981Z,987.37
2023-01-27T05:37:10.972Z,987.42
2023-01-27T05:38:10.965Z,987.46
2023-01-27T05:39:10.947Z,987.47
2023-01-27T05:40:10.964Z,987.52
2023-01-27T05:41:10.922Z,987.46
2023-01-27T05:42:10.922Z,987.53
2023-01-27T05:43:11.613Z,987.55
2023-01-27T05:44:10.925Z,987.56
2023-01-27T05:45:10.885Z,987.55
2023-01-27T05:46:10.901Z,987.57
2023-01-27T05:47:10.865Z,987.57
2023-01-27T05:48:10.858Z,987.57
2023-01-27T05:49:10.848Z,987.54
2023-01-27T05:50:10.858Z,987.47
2023-01-27T05:51:13.441Z,987.49
2023-01-27T05:52:10.835Z,987.48
2023-01-27T05:53:11.745Z,987.54
2023-01-27T05:54:10.807Z,987.50
2023-01-27T05:55:11.357Z,987.55
2023-01-27T05:56:10.780Z,987.50
2023-01-27T05:57:10.832Z,987.57
2023-01-27T05:58:10.754Z,987.50
2023-01-27T05:59:10.738Z,987.48
2023-01-27T06:00:10.767Z,987.46
2023-01-27T06:01:10.724Z,987.46
2023-01-27T06:02:10.735Z,987.53
2023-01-27T06:03:10.769Z,987.54
2023-01-27T06:04:10.706Z,987.51
2023-01-27T06:05:10.737Z,987.47
2023-01-27T06:06:10.675Z,987.52
2023-01-27T06:07:10.696Z,987.51
2023-01-27T06:08:11.775Z,987.47
2023-01-27T06:09:10.678Z,987.52
2023-01-27T06:10:11.328Z,987.56
2023-01-27T06:11:10.868Z,987.54
2023-01-27T06:12:10.634Z,987.53
2023-01-27T06:13:10.597Z,987.47
2023-01-27T06:14:10.609Z,987.48
2023-01-27T06:15:10.637Z,987.47
2023-01-27T06:16:10.709Z,987.48
2023-01-27T06:17:10.595Z,987.48
2023-01-27T06:18:11.248Z,987.52
2023-01-27T06:19:10.571Z,987.48
2023-01-27T06:20:10.611Z,987.52
2023-01-27T06:21:10.543Z,987.50
2023-01-27T06:22:11.565Z,987.54
2023-01-27T06:23:10.509Z,987.52
2023-01-27T06:24:13.427Z,987.56
2023-01-27T06:25:10.534Z,987.56
2023-01-27T06:26:11.168Z,987.50
2023-01-27T06:27:10.486Z,987.57
2023-01-27T06:28:17.141Z,987.57
2023-01-27T06:29:11.436Z,987.51
2023-01-27T06:30:10.467Z,987.54
2023-01-27T06:31:10.485Z,987.60
2023-01-27T06:32:10.520Z,987.59
2023-01-27T06:33:10.395Z,987.56
2023-01-27T06:34:10.381Z,987.51
2023-01-27T06:35:10.408Z,987.53
2023-01-27T06:36:10.367Z,987.59
2023-01-27T06:37:10.356Z,987.51
2023-01-27T06:38:12.342Z,987.55
2023-01-27T06:39:10.332Z,987.63
2023-01-27T06:40:10.329Z,987.53
2023-01-27T06:41:10.329Z,987.57
2023-01-27T06:42:10.311Z,987.57
2023-01-27T06:43:10.285Z,987.65
2023-01-27T06:44:10.276Z,987.63
2023-01-27T06:45:10.285Z,987.69
2023-01-27T06:46:10.328Z,987.68
2023-01-27T06:47:10.250Z,987.70
2023-01-27T06:48:10.228Z,987.71
2023-01-27T06:49:10.225Z,987.71
2023-01-27T06:50:10.225Z,987.75
2023-01-27T06:51:10.219Z,987.87
2023-01-27T06:52:10.198Z,987.84
2023-01-27T06:53:10.196Z,987.82
2023-01-27T06:54:10.186Z,987.86
2023-01-27T06:55:10.167Z,987.85
2023-01-27T06:56:10.168Z,987.77
2023-01-27T06:57:10.146Z,987.83
2023-01-27T06:58:10.134Z,987.77
2023-01-27T06:59:10.147Z,987.88
2023-01-27T07:00:10.110Z,987.93
2023-01-27T07:01:10.147Z,987.95
2023-01-27T07:02:10.088Z,987.99
2023-01-27T07:03:10.077Z,988.01
2023-01-27T07:04:10.078Z,987.98
2023-01-27T07:05:10.081Z,988.06
2023-01-27T07:06:10.064Z,988.09
2023-01-27T07:07:10.037Z,988.09
2023-01-27T07:08:10.027Z,988.05
2023-01-27T07:09:10.019Z,988.07
2023-01-27T07:10:10.006Z,988.16
2023-01-27T07:11:10.019Z,988.10
2023-01-27T07:12:09.987Z,988.16
2023-01-27T07:13:10.582Z,988.17
2023-01-27T07:14:10.703Z,988.23
2023-01-27T07:15:11.030Z,988.23
2023-01-27T07:16:10.019Z,988.21
2023-01-27T07:17:10.615Z,988.18
2023-01-27T07:18:09.936Z,988.20
2023-01-27T07:19:09.938Z,988.23
2023-01-27T07:20:09.913Z,988.22
2023-01-27T07:21:09.872Z,988.24
2023-01-27T07:22:09.861Z,988.21
2023-01-27T07:23:09.867Z,988.21
2023-01-27T07:24:09.930Z,988.29
2023-01-27T07:25:09.831Z,988.29
2023-01-27T07:26:23.186Z,988.20
2023-01-27T07:27:11.001Z,988.29
2023-01-27T07:28:09.802Z,988.31
2023-01-27T07:29:09.811Z,988.25
2023-01-27T07:30:09.771Z,988.27
2023-01-27T07:31:10.035Z,988.24
2023-01-27T07:32:09.763Z,988.19
2023-01-27T07:33:10.713Z,988.20
2023-01-27T07:34:09.736Z,988.22
2023-01-27T07:35:09.746Z,988.30
2023-01-27T07:36:09.727Z,988.31
2023-01-27T07:37:09.729Z,988.36
2023-01-27T07:38:09.693Z,988.32
2023-01-27T07:39:09.702Z,988.32
2023-01-27T07:40:09.673Z,988.37
2023-01-27T07:41:09.662Z,988.37
2023-01-27T07:42:09.643Z,988.37
2023-01-27T07:43:09.641Z,988.41
2023-01-27T07:44:09.643Z,988.33
2023-01-27T07:45:09.675Z,988.34
2023-01-27T07:46:09.713Z,988.37
2023-01-27T07:47:09.605Z,988.36
2023-01-27T07:48:09.601Z,988.36
2023-01-27T07:49:09.606Z,988.44
2023-01-27T07:50:09.576Z,988.38
2023-01-27T07:51:09.575Z,988.45
2023-01-27T07:52:09.564Z,988.41
2023-01-27T07:53:09.551Z,988.43
2023-01-27T07:54:09.550Z,988.47
2023-01-27T07:55:09.526Z,988.49
2023-01-27T07:56:09.505Z,988.48
2023-01-27T07:57:09.522Z,988.52
2023-01-27T07:58:09.485Z,988.46
2023-01-27T07:59:09.486Z,988.49
2023-01-27T08:00:09.473Z,988.51
2023-01-27T08:01:09.542Z,988.52
2023-01-27T08:02:09.473Z,988.51
2023-01-27T08:03:09.482Z,988.53
2023-01-27T08:04:09.423Z,988.57
2023-01-27T08:05:09.421Z,988.54
2023-01-27T08:06:09.403Z,988.56
2023-01-27T08:07:09.403Z,988.56
2023-01-27T08:08:09.387Z,988.51
2023-01-27T08:09:09.425Z,988.56
2023-01-27T08:10:09.406Z,988.53
2023-01-27T08:11:09.353Z,988.50
2023-01-27T08:12:09.352Z,988.48
2023-01-27T08:13:09.391Z,988.52
2023-01-27T08:14:10.054Z,988.52
2023-01-27T08:15:09.324Z,988.57
2023-01-27T08:16:10.044Z,988.57
2023-01-27T08:17:09.318Z,988.60
2023-01-27T08:18:10.388Z,988.52
2023-01-27T08:19:09.345Z,988.56
2023-01-27T08:20:09.967Z,988.60
2023-01-27T08:21:09.278Z,988.63
2023-01-27T08:22:10.268Z,988.58
2023-01-27T08:23:09.371Z,988.59
2023-01-27T08:24:09.976Z,988.55
2023-01-27T08:25:09.313Z,988.55
2023-01-27T08:26:09.917Z,988.65
2023-01-27T08:27:09.204Z,988.60
2023-01-27T08:28:09.935Z,988.61
2023-01-27T08:29:09.193Z,988.70
2023-01-27T08:30:09.879Z,988.68
2023-01-27T08:31:09.168Z,988.73
2023-01-27T08:32:10.120Z,988.71
2023-01-27T08:33:09.143Z,988.78
2023-01-27T08:34:10.587Z,988.77
2023-01-27T08:35:09.105Z,988.73
2023-01-27T08:36:10.077Z,988.71
2023-01-27T08:37:09.110Z,988.78
2023-01-27T08:38:10.060Z,988.74
2023-01-27T08:39:09.077Z,988.73
2023-01-27T08:40:09.076Z,988.83
2023-01-27T08:41:09.066Z,988.77
2023-01-27T08:42:09.744Z,988.76
2023-01-27T08:43:09.060Z,988.80
2023-01-27T08:44:09.723Z,988.71
2023-01-27T08:45:09.014Z,988.75
2023-01-27T08:46:09.721Z,988.76
2023-01-27T08:47:09.014Z,988.82
2023-01-27T08:48:09.931Z,988.81
2023-01-27T08:49:08.975Z,988.83
2023-01-27T08:50:08.954Z,988.88
2023-01-27T08:51:08.948Z,988.89
2023-01-27T08:52:10.386Z,988.79
2023-01-27T08:53:08.944Z,988.83
2023-01-27T08:54:09.619Z,988.85
2023-01-27T08:55:08.908Z,988.84
2023-01-27T08:56:08.904Z,988.79
2023-01-27T08:57:08.894Z,988.84
2023-01-27T08:58:09.074Z,988.85
2023-01-27T08:59:08.855Z,988.89
2023-01-27T09:00:09.294Z,988.91
2023-01-27T09:01:08.851Z,988.87
2023-01-27T09:02:08.995Z,988.95
2023-01-27T09:03:08.816Z,989.00
2023-01-27T09:04:08.806Z,988.91
2023-01-27T09:05:08.808Z,988.95
2023-01-27T09:06:08.785Z,989.00
2023-01-27T09:07:09.734Z,988.91
2023-01-27T09:08:08.766Z,988.91
2023-01-27T09:09:11.235Z,988.93
2023-01-27T09:10:14.485Z,988.91
2023-01-27T09:11:09.735Z,988.90
2023-01-27T09:12:08.727Z,988.85
2023-01-27T09:13:08.714Z,988.90
2023-01-27T09:14:08.729Z,988.85
2023-01-27T09:15:08.699Z,988.84
2023-01-27T09:16:08.730Z,988.84
2023-01-27T09:17:08.675Z,988.82
2023-01-27T09:18:08.716Z,988.78
2023-01-27T09:19:08.689Z,988.77
2023-01-27T09:20:08.645Z,988.74
2023-01-27T09:21:08.657Z,988.80
2023-01-27T09:22:08.629Z,988.81
2023-01-27T09:23:08.613Z,988.86
2023-01-27T09:24:08.628Z,988.86
2023-01-27T09:25:08.607Z,988.84
2023-01-27T09:26:08.577Z,988.95
2023-01-27T09:27:08.574Z,988.91
2023-01-27T09:28:08.556Z,988.91
2023-01-27T09:29:08.545Z,988.88
2023-01-27T09:30:08.546Z,988.86
2023-01-27T09:31:09.319Z,988.82
2023-01-27T09:32:08.591Z,988.87
2023-01-27T09:33:10.083Z,988.85
2023-01-27T09:34:08.505Z,988.85
2023-01-27T09:35:08.576Z,988.89
2023-01-27T09:36:08.496Z,988.86
2023-01-27T09:37:09.478Z,988.95
2023-01-27T09:38:08.457Z,988.96
2023-01-27T09:39:09.167Z,988.90
2023-01-27T09:40:08.446Z,988.96
2023-01-27T09:41:09.545Z,988.96
2023-01-27T09:42:08.466Z,988.98
2023-01-27T09:43:08.847Z,988.99
2023-01-27T09:44:08.406Z,988.97
2023-01-27T09:45:08.457Z,988.96
2023-01-27T09:46:08.551Z,988.94
2023-01-27T09:47:08.416Z,988.97
2023-01-27T09:48:08.358Z,988.93
2023-01-27T09:49:08.370Z,988.97
2023-01-27T09:50:08.326Z,988.91
2023-01-27T09:51:08.328Z,988.91
2023-01-27T09:52:08.339Z,988.86
2023-01-27T09:53:08.335Z,988.95
2023-01-27T09:54:08.320Z,988.93
2023-01-27T09:55:08.297Z,988.95
2023-01-27T09:56:08.296Z,989.00
2023-01-27T09:57:08.288Z,988.99
2023-01-27T09:58:08.300Z,989.02
2023-01-27T09:59:08.263Z,989.00
2023-01-27T10:00:08.226Z,989.00
2023-01-27T10:01:08.270Z,988.99
2023-01-27T10:02:08.236Z,988.98
2023-01-27T10:03:08.228Z,988.93
2023-01-27T10:04:08.207Z,988.91
2023-01-27T10:05:08.188Z,988.89
2023-01-27T10:06:08.192Z,988.83
2023-01-27T10:07:08.159Z,988.88
2023-01-27T10:08:08.157Z,988.89
2023-01-27T10:09:08.169Z,988.97
2023-01-27T10:10:08.136Z,988.97
2023-01-27T10:11:08.117Z,989.00
2023-01-27T10:12:08.144Z,989.01
2023-01-27T10:13:08.108Z,989.03
2023-01-27T10:14:08.076Z,988.92
2023-01-27T10:15:08.089Z,988.91
2023-01-27T10:16:08.083Z,988.94
2023-01-27T10:17:08.057Z,988.92
2023-01-27T10:18:08.039Z,988.90
2023-01-27T10:19:08.039Z,988.88
2023-01-27T10:20:08.024Z,988.95
2023-01-27T10:21:08.006Z,988.91
2023-01-27T10:22:08.019Z,988.95
2023-01-27T10:23:07.987Z,988.95
2023-01-27T10:24:07.988Z,988.94
2023-01-27T10:25:07.969Z,988.89
2023-01-27T10:26:07.947Z,988.88
2023-01-27T10:27:08.922Z,988.90
2023-01-27T10:28:07.927Z,988.90
2023-01-27T10:29:07.932Z,988.93
2023-01-27T10:30:07.919Z,988.91
2023-01-27T10:31:07.958Z,988.92
2023-01-27T10:32:07.923Z,988.96
2023-01-27T10:33:07.888Z,988.91
2023-01-27T10:34:07.875Z,988.97
2023-01-27T10:35:07.859Z,988.92
2023-01-27T10:36:07.853Z,988.92
2023-01-27T10:37:07.857Z,988.97
2023-01-27T10:38:07.860Z,988.87
2023-01-27T10:39:07.815Z,988.88
2023-01-27T10:40:07.833Z,988.97
2023-01-27T10:41:07.789Z,988.92
2023-01-27T10:42:07.798Z,988.94
2023-01-27T10:43:07.777Z,988.92
2023-01-27T10:44:07.930Z,988.91
2023-01-27T10:45:07.761Z,988.92
2023-01-27T10:46:07.927Z,988.86
2023-01-27T10:47:07.769Z,988.89
2023-01-27T10:48:08.421Z,988.92
2023-01-27T10:49:07.729Z,988.99
2023-01-27T10:50:08.757Z,988.99
2023-01-27T10:51:07.702Z,989.07
2023-01-27T10:52:08.399Z,989.01
2023-01-27T10:53:07.689Z,989.05
2023-01-27T10:54:08.400Z,989.01
2023-01-27T10:55:07.668Z,989.04
2023-01-27T10:56:07.899Z,989.07
2023-01-27T10:57:07.699Z,989.02
2023-01-27T10:58:08.341Z,989.02
2023-01-27T10:59:07.609Z,989.06
2023-01-27T11:00:41.850Z,988.93
2023-01-27T11:01:24.986Z,988.95
2023-01-27T11:02:08.745Z,988.99
2023-01-27T11:03:07.584Z,988.99
2023-01-27T11:04:07.652Z,988.99
2023-01-27T11:05:07.539Z,988.94
2023-01-27T11:06:07.535Z,988.97
2023-01-27T11:07:07.527Z,988.97
2023-01-27T11:08:07.543Z,989.06
2023-01-27T11:09:07.500Z,989.02
2023-01-27T11:10:07.545Z,988.98
2023-01-27T11:11:07.490Z,989.03
2023-01-27T11:12:07.529Z,988.98
2023-01-27T11:13:07.470Z,989.03
2023-01-27T11:14:07.451Z,988.99
2023-01-27T11:15:07.441Z,988.99
2023-01-27T11:16:07.465Z,988.90
2023-01-27T11:17:07.433Z,988.97
2023-01-27T11:18:07.425Z,989.00
2023-01-27T11:19:07.402Z,988.95
2023-01-27T11:20:07.437Z,988.88
2023-01-27T11:21:07.374Z,988.99
2023-01-27T11:22:08.974Z,988.96
2023-01-27T11:23:07.362Z,989.00
2023-01-27T11:24:07.366Z,988.87
2023-01-27T11:25:07.339Z,988.83
2023-01-27T11:26:07.384Z,988.84
2023-01-27T11:27:07.319Z,988.90
2023-01-27T11:28:07.320Z,988.86
2023-01-27T11:29:07.295Z,988.91
2023-01-27T11:30:07.309Z,988.92
2023-01-27T11:31:07.283Z,988.91
2023-01-27T11:32:07.334Z,988.92
2023-01-27T11:33:07.252Z,988.99
2023-01-27T11:34:07.251Z,988.86
2023-01-27T11:35:07.238Z,988.79
2023-01-27T11:36:07.232Z,988.78
2023-01-27T11:37:07.248Z,988.79
2023-01-27T11:38:15.345Z,988.70
2023-01-27T11:39:08.219Z,988.79
2023-01-27T11:40:07.181Z,988.75
2023-01-27T11:41:07.174Z,988.77
2023-01-27T11:42:07.163Z,988.72
2023-01-27T11:43:07.142Z,988.75
2023-01-27T11:44:07.147Z,988.71
2023-01-27T11:45:07.202Z,988.72
2023-01-27T11:46:07.172Z,988.72
2023-01-27T11:47:07.117Z,988.67
2023-01-27T11:48:07.096Z,988.76
2023-01-27T11:49:07.161Z,988.73
2023-01-27T11:50:07.069Z,988.70
2023-01-27T11:51:07.075Z,988.75
2023-01-27T11:52:07.051Z,988.73
2023-01-27T11:53:07.032Z,988.71
2023-01-27T11:54:07.022Z,988.73
2023-01-27T11:55:07.014Z,988.69
2023-01-27T11:56:07.031Z,988.69
2023-01-27T11:57:07.003Z,988.69
2023-01-27T11:58:06.985Z,988.65
2023-01-27T11:59:07.083Z,988.66
2023-01-27T12:00:06.972Z,988.68
2023-01-27T12:01:07.663Z,988.67
2023-01-27T12:02:06.954Z,988.62
2023-01-27T12:03:07.648Z,988.69
2023-01-27T12:04:07.008Z,988.63
2023-01-27T12:05:07.071Z,988.61
2023-01-27T12:06:06.994Z,988.61
2023-01-27T12:07:07.913Z,988.59
2023-01-27T12:08:06.909Z,988.62
2023-01-27T12:09:06.976Z,988.61
2023-01-27T12:10:06.893Z,988.57
2023-01-27T12:11:07.007Z,988.64
2023-01-27T12:12:06.844Z,988.65
2023-01-27T12:13:07.543Z,988.56
2023-01-27T12:14:06.822Z,988.61
2023-01-27T12:15:06.861Z,988.57
2023-01-27T12:16:06.837Z,988.54
2023-01-27T12:17:06.792Z,988.46
2023-01-27T12:18:06.785Z,988.52
2023-01-27T12:19:06.756Z,988.54
2023-01-27T12:20:06.765Z,988.48
2023-01-27T12:21:06.733Z,988.48
2023-01-27T12:22:06.724Z,988.53
2023-01-27T12:23:06.709Z,988.44
2023-01-27T12:24:06.747Z,988.51
2023-01-27T12:25:06.691Z,988.42
2023-01-27T12:26:06.684Z,988.42
2023-01-27T12:27:06.664Z,988.48
2023-01-27T12:28:06.671Z,988.50